createdAt,value
2023-05-10T00:00:49.418Z,61.20
2023-05-10T00:03:17.268Z,61.44
2023-05-10T00:05:44.689Z,61.48
2023-05-10T00:08:12.573Z,61.63
2023-05-10T00:10:39.871Z,61.57
2023-05-10T00:13:07.393Z,61.52
2023-05-10T00:15:36.132Z,61.50
2023-05-10T00:18:04.061Z,61.49
2023-05-10T00:20:31.416Z,61.47
2023-05-10T00:22:59.165Z,61.54
2023-05-10T00:25:26.729Z,61.61
2023-05-10T00:27:56.571Z,61.63
2023-05-10T00:30:23.851Z,61.66
2023-05-10T00:32:53.067Z,61.85
2023-05-10T00:35:20.780Z,61.87
2023-05-10T00:37:48.826Z,61.87
2023-05-10T00:40:16.595Z,61.91
2023-05-10T00:42:44.106Z,61.99
2023-05-10T00:45:12.846Z,62.26
2023-05-10T00:47:41.030Z,63.45
2023-05-10T00:50:10.215Z,62.95
2023-05-10T00:52:38.247Z,62.91
2023-05-10T00:55:07.505Z,62.08
2023-05-10T00:57:34.649Z,61.32
2023-05-10T01:00:03.618Z,60.16
2023-05-10T01:06:25.310Z,59.42
2023-05-10T01:10:20.136Z,59.97
2023-05-10T01:14:14.444Z,60.39
2023-05-10T01:18:04.198Z,60.82
2023-05-10T01:21:45.018Z,60.95
2023-05-10T01:25:44.518Z,60.97
2023-05-10T01:29:58.169Z,61.53
2023-05-10T01:33:39.331Z,61.55
2023-05-10T01:41:22.043Z,65.99
2023-05-10T01:45:24.711Z,64.05
2023-05-10T01:49:14.038Z,64.21
2023-05-10T01:53:04.028Z,62.11
2023-05-10T02:00:47.615Z,59.43
2023-05-10T02:04:38.359Z,59.02
2023-05-10T02:08:44.261Z,59.39
2023-05-10T02:16:24.088Z,61.84
2023-05-10T02:20:16.516Z,63.47
2023-05-10T02:24:03.549Z,62.76
2023-05-10T02:27:53.637Z,62.27
2023-05-10T02:31:41.151Z,60.79
2023-05-10T02:35:34.931Z,61.45
2023-05-10T02:39:25.044Z,62.43
2023-05-10T02:43:12.562Z,62.36
2023-05-10T02:47:07.276Z,62.56
2023-05-10T02:51:00.949Z,62.21
2023-05-10T02:58:46.549Z,61.20
2023-05-10T03:02:35.179Z,60.97
2023-05-10T03:06:28.929Z,60.67
2023-05-10T03:10:16.793Z,58.13
2023-05-10T03:14:24.512Z,58.56
2023-05-10T03:18:45.545Z,59.48
2023-05-10T03:22:32.705Z,60.23
2023-05-10T03:30:08.537Z,61.31
2023-05-10T03:33:55.493Z,63.91
2023-05-10T03:37:25.440Z,66.52
2023-05-10T03:41:12.369Z,63.15
2023-05-10T03:44:59.254Z,62.20
2023-05-10T03:48:46.461Z,62.51
2023-05-10T03:52:37.041Z,61.52
2023-05-10T03:56:24.170Z,62.11
2023-05-10T04:00:11.436Z,61.26
2023-05-10T04:04:00.645Z,60.96
2023-05-10T04:07:47.715Z,58.94
2023-05-10T04:10:56.345Z,58.80
2023-05-10T04:14:45.526Z,58.72
2023-05-10T04:18:33.886Z,59.62
2023-05-10T04:22:21.037Z,60.76
2023-05-10T04:26:08.016Z,60.80
2023-05-10T04:29:55.117Z,61.47
2023-05-10T04:33:42.400Z,63.35
2023-05-10T04:37:29.548Z,63.15
2023-05-10T04:40:44.380Z,63.12
2023-05-10T04:44:15.810Z,61.46
2023-05-10T04:47:41.938Z,60.31
2023-05-10T04:50:56.186Z,58.45
2023-05-10T04:54:23.199Z,58.35
2023-05-10T04:57:54.915Z,58.27
2023-05-10T05:01:21.944Z,59.09
2023-05-10T05:04:30.624Z,59.83
2023-05-10T05:08:06.397Z,60.34
2023-05-10T05:11:56.802Z,60.91
2023-05-10T05:15:06.003Z,60.92
2023-05-10T05:18:41.597Z,61.21
2023-05-10T05:22:06.181Z,61.11
2023-05-10T05:25:38.464Z,61.30
2023-05-10T05:28:46.013Z,61.73
2023-05-10T05:32:37.148Z,61.72
2023-05-10T05:40:08.655Z,62.07
2023-05-10T05:43:46.472Z,62.13
2023-05-10T05:47:33.324Z,61.87
2023-05-10T05:51:20.133Z,61.47
2023-05-10T05:55:07.212Z,61.28
2023-05-10T05:58:40.143Z,61.10
2023-05-10T06:02:18.872Z,60.88
2023-05-10T06:05:45.860Z,60.65
2023-05-10T06:09:32.855Z,59.95
2023-05-10T06:12:15.551Z,59.64
2023-05-10T06:15:42.777Z,58.78
2023-05-10T06:19:29.973Z,57.18
2023-05-10T06:23:05.837Z,57.10
2023-05-10T06:26:53.024Z,56.92
2023-05-10T06:30:40.248Z,57.07
2023-05-10T06:34:27.515Z,56.66
2023-05-10T06:38:20.387Z,56.39
2023-05-10T06:45:18.956Z,54.86
2023-05-10T06:48:39.523Z,54.47
2023-05-10T06:52:31.010Z,53.52
2023-05-10T06:56:18.175Z,53.97
2023-05-10T07:00:06.148Z,54.22
2023-05-10T07:03:54.951Z,53.76
2023-05-10T07:07:45.733Z,51.94
2023-05-10T07:11:34.093Z,52.44
2023-05-10T07:15:27.924Z,51.07
2023-05-10T07:19:27.081Z,50.54
2023-05-10T07:23:20.531Z,49.51
2023-05-10T07:27:10.799Z,49.08
2023-05-10T07:31:02.732Z,48.62
2023-05-10T07:38:47.734Z,48.48
2023-05-10T07:42:42.260Z,46.45
2023-05-10T07:46:33.345Z,45.48
2023-05-10T07:50:29.059Z,44.18
2023-05-10T07:54:17.274Z,43.54
2023-05-10T07:58:14.033Z,43.02
2023-05-10T08:01:21.329Z,43.61
2023-05-10T08:04:52.660Z,43.12
2023-05-10T08:07:28.630Z,44.83
2023-05-10T08:09:55.961Z,43.71
2023-05-10T08:12:24.288Z,41.91
2023-05-10T08:14:51.480Z,42.89
2023-05-10T08:17:19.940Z,42.86
2023-05-10T08:19:47.874Z,41.49
2023-05-10T08:22:15.347Z,39.06
2023-05-10T08:24:43.391Z,39.82
2023-05-10T08:27:11.685Z,40.72
2023-05-10T08:29:59.423Z,38.98
2023-05-10T08:32:26.807Z,37.66
2023-05-10T08:34:54.303Z,38.58
2023-05-10T08:38:21.773Z,40.01
2023-05-10T08:40:56.670Z,39.94
2023-05-10T08:44:07.108Z,39.79
2023-05-10T08:47:42.761Z,38.80
2023-05-10T08:51:30.168Z,39.26
2023-05-10T08:55:18.441Z,39.37
2023-05-10T08:59:14.290Z,38.13
2023-05-10T09:03:02.181Z,38.96
2023-05-10T09:06:55.907Z,37.91
2023-05-10T09:10:44.028Z,36.17
2023-05-10T09:14:42.091Z,36.71
2023-05-10T09:18:34.375Z,36.63
2023-05-10T09:22:23.494Z,35.67
2023-05-10T09:26:15.794Z,35.53
2023-05-10T09:30:24.404Z,34.79
2023-05-10T09:34:20.104Z,36.58
2023-05-10T09:38:14.282Z,35.41
2023-05-10T09:42:05.256Z,34.87
2023-05-10T09:45:53.598Z,34.60
2023-05-10T09:49:47.211Z,33.51
2023-05-10T10:05:36.818Z,36.70
2023-05-10T10:09:32.317Z,36.42
2023-05-10T10:13:20.064Z,34.40
2023-05-10T10:17:11.739Z,35.55
2023-05-10T10:21:01.359Z,34.75
2023-05-10T10:25:07.776Z,33.33
2023-05-10T10:28:56.018Z,33.34
2023-05-10T10:33:24.284Z,35.30
2023-05-10T10:36:38.725Z,35.12
2023-05-10T10:39:12.030Z,34.87
2023-05-10T10:41:57.025Z,34.44
2023-05-10T10:44:29.161Z,34.28
2023-05-10T10:47:32.346Z,34.01
2023-05-10T10:50:14.253Z,34.73
2023-05-10T10:52:44.281Z,34.88
2023-05-10T10:55:20.540Z,35.37
2023-05-10T10:58:02.277Z,35.24
2023-05-10T11:00:38.866Z,35.33
2023-05-10T11:03:18.894Z,34.56
2023-05-10T11:06:08.314Z,35.14
2023-05-10T11:08:46.409Z,35.59
2023-05-10T11:11:21.886Z,34.22
2023-05-10T11:13:53.536Z,33.80
2023-05-10T11:16:25.460Z,33.42
2023-05-10T11:19:11.243Z,33.74
2023-05-10T11:21:52.823Z,33.84
2023-05-10T11:24:24.617Z,34.21
2023-05-10T11:26:55.052Z,33.60
2023-05-10T11:29:22.664Z,32.99
2023-05-10T11:31:51.109Z,34.06
2023-05-10T11:34:35.116Z,34.25
2023-05-10T11:37:03.404Z,33.42
2023-05-10T11:39:32.994Z,32.89
2023-05-10T11:42:00.880Z,33.12
2023-05-10T11:44:35.034Z,34.39
2023-05-10T11:47:10.553Z,33.73
2023-05-10T11:49:38.237Z,33.29
2023-05-10T11:52:12.465Z,33.62
2023-05-10T11:54:47.858Z,34.42
2023-05-10T11:57:15.929Z,34.65
2023-05-10T11:59:44.943Z,34.54
2023-05-10T12:02:18.846Z,34.89
2023-05-10T12:04:47.201Z,35.36
2023-05-10T12:07:16.327Z,34.71
2023-05-10T12:10:05.543Z,34.46
2023-05-10T12:12:41.359Z,34.63
2023-05-10T12:15:26.156Z,34.17
2023-05-10T12:17:53.983Z,34.21
2023-05-10T12:20:30.106Z,31.91
2023-05-10T12:23:03.397Z,32.39
2023-05-10T12:25:36.730Z,31.73
2023-05-10T12:30:55.870Z,32.33
2023-05-10T12:33:23.262Z,32.73
2023-05-10T12:35:53.334Z,33.56
2023-05-10T12:38:32.460Z,34.15
2023-05-10T12:41:02.319Z,34.14
2023-05-10T12:43:30.081Z,33.60
2023-05-10T12:45:58.606Z,33.20
2023-05-10T12:48:26.496Z,32.89
2023-05-10T12:50:54.325Z,32.41
2023-05-10T12:53:22.898Z,31.16
2023-05-10T12:55:50.187Z,31.28
2023-05-10T12:58:31.465Z,31.76
2023-05-10T13:01:04.381Z,31.78
2023-05-10T13:03:31.934Z,32.29
2023-05-10T13:05:59.175Z,32.72
2023-05-10T13:08:26.952Z,32.67
2023-05-10T13:10:54.558Z,32.72
2023-05-10T13:13:21.799Z,32.23
2023-05-10T13:15:50.048Z,32.21
2023-05-10T13:18:17.603Z,32.45
2023-05-10T13:20:45.735Z,31.68
2023-05-10T13:23:13.606Z,31.01
2023-05-10T13:25:41.504Z,30.67
2023-05-10T13:28:08.909Z,31.30
2023-05-10T13:30:37.347Z,31.93
2023-05-10T13:33:04.745Z,32.21
2023-05-10T13:35:32.103Z,32.00
2023-05-10T13:38:00.211Z,29.77
2023-05-10T13:40:29.266Z,30.86
2023-05-10T13:42:56.570Z,31.68
2023-05-10T13:45:23.769Z,31.41
2023-05-10T13:47:51.613Z,31.65
2023-05-10T13:50:19.384Z,31.92
2023-05-10T13:52:47.489Z,30.89
2023-05-10T13:55:15.447Z,31.56
2023-05-10T13:57:44.637Z,30.79
2023-05-10T14:00:12.652Z,30.84
2023-05-10T14:02:40.922Z,31.52
2023-05-10T14:05:08.852Z,31.31
2023-05-10T14:07:36.368Z,30.95
2023-05-10T14:10:04.364Z,30.22
2023-05-10T14:12:32.121Z,30.83
2023-05-10T14:15:01.517Z,31.35
2023-05-10T14:17:29.018Z,31.56
2023-05-10T14:19:56.823Z,31.23
2023-05-10T14:22:24.640Z,31.37
2023-05-10T14:24:52.132Z,30.65
2023-05-10T14:27:19.776Z,31.18
2023-05-10T14:29:47.573Z,31.92
2023-05-10T14:32:14.874Z,31.95
2023-05-10T14:34:42.811Z,31.38
2023-05-10T14:37:13.159Z,32.03
2023-05-10T14:39:40.746Z,31.39
2023-05-10T14:42:08.782Z,31.12
2023-05-10T14:44:36.852Z,31.72
2023-05-10T14:47:04.136Z,32.21
2023-05-10T14:49:34.096Z,32.04
2023-05-10T14:52:02.391Z,31.96
2023-05-10T14:54:29.666Z,31.92
2023-05-10T14:56:57.527Z,31.63
2023-05-10T14:59:25.359Z,31.82
2023-05-10T15:01:53.522Z,31.72
2023-05-10T15:04:22.746Z,31.78
2023-05-10T15:06:52.235Z,31.23
2023-05-10T15:09:19.579Z,31.70
2023-05-10T15:11:47.093Z,32.32
2023-05-10T15:14:14.812Z,31.45
2023-05-10T15:16:42.772Z,32.20
2023-05-10T15:19:10.480Z,32.54
2023-05-10T15:21:40.734Z,32.80
2023-05-10T15:24:09.372Z,32.41
2023-05-10T15:26:36.833Z,31.70
2023-05-10T15:29:05.348Z,32.10
2023-05-10T15:31:32.489Z,32.21
2023-05-10T15:34:00.629Z,32.41
2023-05-10T15:36:28.462Z,32.51
2023-05-10T15:38:57.340Z,31.91
2023-05-10T15:41:25.856Z,31.42
2023-05-10T15:43:53.664Z,30.74
2023-05-10T15:46:21.078Z,31.76
2023-05-10T15:48:48.498Z,31.97
2023-05-10T15:51:16.451Z,32.31
2023-05-10T15:53:56.359Z,32.56
2023-05-10T15:56:31.748Z,33.17
2023-05-10T15:58:59.753Z,33.06
2023-05-10T16:01:27.219Z,32.79
2023-05-10T16:03:55.186Z,33.17
2023-05-10T16:06:22.618Z,33.43
2023-05-10T16:08:49.880Z,33.82
2023-05-10T16:11:17.969Z,33.98
2023-05-10T16:13:45.304Z,33.54
2023-05-10T16:16:12.836Z,33.35
2023-05-10T16:18:40.508Z,33.76
2023-05-10T16:21:08.198Z,33.84
2023-05-10T16:23:35.438Z,33.81
2023-05-10T16:26:05.815Z,34.14
2023-05-10T16:28:33.508Z,34.32
2023-05-10T16:31:00.787Z,34.63
2023-05-10T16:33:28.580Z,34.78
2023-05-10T16:35:56.000Z,35.13
2023-05-10T16:38:23.384Z,35.24
2023-05-10T16:40:51.504Z,35.33
2023-05-10T16:43:19.711Z,35.09
2023-05-10T16:45:47.053Z,35.15
2023-05-10T16:48:14.593Z,35.29
2023-05-10T16:50:45.185Z,35.48
2023-05-10T16:53:12.606Z,35.49
2023-05-10T16:55:40.351Z,35.99
2023-05-10T16:58:07.829Z,36.17
2023-05-10T17:00:35.197Z,36.18
2023-05-10T17:03:02.557Z,36.47
2023-05-10T17:05:30.243Z,36.78
2023-05-10T17:07:57.470Z,36.92
2023-05-10T17:10:24.656Z,37.19
2023-05-10T17:12:52.065Z,37.45
2023-05-10T17:15:19.849Z,37.66
2023-05-10T17:17:48.428Z,37.80
2023-05-10T17:20:15.775Z,38.02
2023-05-10T17:22:43.036Z,37.94
2023-05-10T17:25:10.788Z,38.08
2023-05-10T17:27:38.258Z,38.28
2023-05-10T17:30:09.009Z,38.65
2023-05-10T17:32:37.085Z,38.72
2023-05-10T17:35:05.570Z,38.96
2023-05-10T17:37:33.434Z,39.02
2023-05-10T17:40:01.803Z,39.04
2023-05-10T17:42:29.122Z,39.47
2023-05-10T17:44:56.710Z,39.24
2023-05-10T17:47:24.508Z,39.95
2023-05-10T17:49:51.805Z,40.11
2023-05-10T17:52:19.391Z,40.20
2023-05-10T17:54:46.847Z,40.28
2023-05-10T17:57:14.190Z,40.25
2023-05-10T17:59:41.393Z,40.25
2023-05-10T18:02:08.715Z,40.44
2023-05-10T18:04:36.534Z,40.66
2023-05-10T18:07:04.044Z,40.72
2023-05-10T18:09:32.417Z,40.95
2023-05-10T18:12:00.204Z,41.12
2023-05-10T18:14:39.611Z,41.10
2023-05-10T18:17:08.151Z,41.19
2023-05-10T18:19:35.678Z,41.40
2023-05-10T18:22:03.289Z,41.62
2023-05-10T18:24:38.878Z,41.66
2023-05-10T18:27:10.770Z,41.61
2023-05-10T18:29:38.876Z,41.57
2023-05-10T18:32:07.408Z,41.92
2023-05-10T18:34:35.085Z,41.99
2023-05-10T18:37:08.071Z,41.91
2023-05-10T18:39:37.105Z,41.95
2023-05-10T18:42:08.954Z,42.23
2023-05-10T18:44:36.674Z,42.20
2023-05-10T18:47:04.211Z,42.19
2023-05-10T18:49:32.726Z,42.12
2023-05-10T18:52:00.855Z,41.86
2023-05-10T18:54:28.409Z,42.11
2023-05-10T18:56:57.716Z,42.42
2023-05-10T18:59:31.158Z,42.53
2023-05-10T19:01:58.668Z,42.49
2023-05-10T19:04:26.049Z,42.64
2023-05-10T19:06:53.818Z,42.76
2023-05-10T19:09:22.878Z,42.99
2023-05-10T19:11:51.275Z,42.87
2023-05-10T19:14:19.422Z,43.00
2023-05-10T19:16:47.196Z,43.18
2023-05-10T19:19:15.217Z,43.15
2023-05-10T19:21:42.928Z,43.34
2023-05-10T19:24:12.937Z,43.30
2023-05-10T19:26:40.350Z,43.36
2023-05-10T19:29:08.139Z,43.31
2023-05-10T19:31:36.839Z,43.32
2023-05-10T19:34:06.375Z,43.28
2023-05-10T19:36:34.902Z,43.19
2023-05-10T19:39:03.350Z,43.06
2023-05-10T19:41:30.899Z,43.19
2023-05-10T19:43:58.946Z,43.38
2023-05-10T19:46:26.525Z,43.20
2023-05-10T19:48:54.038Z,43.49
2023-05-10T19:51:22.053Z,43.32
2023-05-10T19:53:49.932Z,43.24
2023-05-10T19:56:22.122Z,43.39
2023-05-10T19:58:49.537Z,43.41
2023-05-10T20:01:17.146Z,43.49
2023-05-10T20:03:44.564Z,43.44
2023-05-10T20:06:13.383Z,43.54
2023-05-10T20:08:41.213Z,43.77
2023-05-10T20:11:08.754Z,43.81
2023-05-10T20:13:36.965Z,43.89
2023-05-10T20:16:06.377Z,43.85
2023-05-10T20:18:34.573Z,43.69
2023-05-10T20:21:02.329Z,43.72
2023-05-10T20:23:29.770Z,43.94
2023-05-10T20:25:57.847Z,44.19
2023-05-10T20:28:27.080Z,43.97
2023-05-10T20:30:56.242Z,43.97
2023-05-10T20:33:23.759Z,43.80
2023-05-10T20:35:51.883Z,43.82
2023-05-10T20:38:19.171Z,43.98
2023-05-10T20:40:47.133Z,43.70
2023-05-10T20:43:14.356Z,43.84
2023-05-10T20:45:42.158Z,43.89
2023-05-10T20:48:10.123Z,43.82
2023-05-10T20:50:37.521Z,43.76
2023-05-10T20:53:04.675Z,44.11
2023-05-10T20:55:31.962Z,43.99
2023-05-10T20:57:59.208Z,44.26
2023-05-10T21:00:26.553Z,44.27
2023-05-10T21:02:53.850Z,44.31
2023-05-10T21:05:21.383Z,44.57
2023-05-10T21:07:49.843Z,44.70
2023-05-10T21:10:17.480Z,44.86
2023-05-10T21:12:44.928Z,44.87
2023-05-10T21:15:12.355Z,45.03
2023-05-10T21:17:39.580Z,45.30
2023-05-10T21:20:07.850Z,45.08
2023-05-10T21:22:34.959Z,45.14
2023-05-10T21:25:02.476Z,45.38
2023-05-10T21:27:29.678Z,45.54
2023-05-10T21:29:57.115Z,45.79
2023-05-10T21:32:24.324Z,46.07
2023-05-10T21:34:51.522Z,45.99
2023-05-10T21:37:19.194Z,46.13
2023-05-10T21:39:46.450Z,46.46
2023-05-10T21:42:13.888Z,46.56
2023-05-10T21:44:41.340Z,46.63
2023-05-10T21:47:08.645Z,46.64
2023-05-10T21:49:36.780Z,46.97
2023-05-10T21:52:04.240Z,47.13
2023-05-10T21:54:31.436Z,47.42
2023-05-10T21:56:59.190Z,47.40
2023-05-10T21:59:26.862Z,47.55
2023-05-10T22:01:54.097Z,47.77
2023-05-10T22:04:21.539Z,47.96
2023-05-10T22:06:49.573Z,47.78
2023-05-10T22:09:17.416Z,48.03
2023-05-10T22:11:44.627Z,47.68
2023-05-10T22:14:12.008Z,48.05
2023-05-10T22:16:39.245Z,48.43
2023-05-10T22:19:06.920Z,48.60
2023-05-10T22:21:34.711Z,48.77
2023-05-10T22:24:02.130Z,48.94
2023-05-10T22:26:29.381Z,49.18
2023-05-10T22:28:56.693Z,49.20
2023-05-10T22:31:23.936Z,49.16
2023-05-10T22:33:51.414Z,49.60
2023-05-10T22:36:18.735Z,49.80
2023-05-10T22:38:46.230Z,49.70
2023-05-10T22:41:13.807Z,50.06
2023-05-10T22:43:41.031Z,50.15
2023-05-10T22:46:08.183Z,50.22
2023-05-10T22:48:39.072Z,50.42
2023-05-10T22:51:06.483Z,50.68
2023-05-10T22:53:33.660Z,50.65
2023-05-10T22:56:01.635Z,50.40
2023-05-10T22:58:28.972Z,50.94
2023-05-10T23:00:56.487Z,51.21
2023-05-10T23:03:24.022Z,51.03
2023-05-10T23:05:51.588Z,51.24
2023-05-10T23:08:18.707Z,51.35
2023-05-10T23:10:45.857Z,51.44
2023-05-10T23:13:13.730Z,51.66
2023-05-10T23:15:41.268Z,51.79
2023-05-10T23:18:10.126Z,51.86
2023-05-10T23:20:38.088Z,51.84
2023-05-10T23:23:05.263Z,51.98
2023-05-10T23:25:33.043Z,52.03
2023-05-10T23:28:00.292Z,52.04
2023-05-10T23:30:27.581Z,52.14
2023-05-10T23:32:54.794Z,52.12
2023-05-10T23:35:22.161Z,52.09
2023-05-10T23:37:50.249Z,52.38
2023-05-10T23:40:17.934Z,52.29
2023-05-10T23:42:45.594Z,52.22
2023-05-10T23:45:12.813Z,52.22
2023-05-10T23:47:40.328Z,52.16
2023-05-10T23:50:08.229Z,52.32
2023-05-10T23:52:35.489Z,52.22
2023-05-10T23:55:02.739Z,52.30
2023-05-10T23:57:30.473Z,52.62
2023-05-10T23:59:57.613Z,52.82
